Freeman, Indiana
Current Conditions -  °F | °C
As of 10:53 AM on Friday 21 Nov 2014 (Local Time) from KBMG Reporting Station
Clear Clear  
Wind Chill: 17°   Ceiling: Unl
Heat Index: 26°   Visibility: 10mi
Dew Point:   Wind: 9mph
Humidity: 44%   Direction: 100°E
Pressure: 30.49"   Gusts: NA
Location:  39.3008°N, 86.8112°W
Report Text: KBMG 211553Z 10008KT 10SM CLR M03/M14 A3049 RMK AO2 SLP337 T10331139
Loading
Personal Weather Stations






























Interactive Weather Map New forecast layout! Learn more

10-Day Weather Forecast

Advertisements
Track Severe Weather on mobile